Latest Coastal Weather Observations for Williamtown

IDN60701

Issued at 10:31 pm EST Tuesday 21 May 2024 (issued every 10 minutes, with the page automatically refreshed every 10 minutes)

About coastal observations | Map of coastal stations | Coastal observations for NSW | Marine services | Other Formats
Station Details ID: 061078 Name: WILLIAMTOWN RAAF Lat: -32.79 Lon: 151.84 Height: 7.5 m
Data from the previous 72 hours. | See also: Recent months at Williamtown
Date/Time
EST
Wind Sea
Height
m
Swell Vis
km
Cloud Weather Temp
°C
Press
MSL
hPa
Rain since
9am
mm
Dir  Spd
kts
Gust
kts
Height
m
Period
s
Dir
21/10:00pm NW 8 9 - - - - 10 - - 13.2 1026.2 9.8
21/09:30pm WNW 8 11 - - - - 10 Partly cloudy - 13.9 1026.2 9.8
21/09:00pm WNW 6 8 - - - - 10 Mostly cloudy Rain 14.4 1026.3 9.4
21/08:30pm SSW 4 8 - - - - 10 Partly cloudy - 14.7 1026.3 9.4
21/08:00pm WNW 7 8 - - - - 10 Partly cloudy - 14.3 1026.2 9.0
21/07:30pm W 4 5 - - - - 10 Partly cloudy - 14.5 1026.2 9.0
21/07:00pm SSW 7 10 - - - - 10 Mostly clear - 14.6 1026.1 9.0
21/06:30pm SW 7 8 - - - - 4 Partly cloudy Showers 14.6 1026.1 7.0
21/06:00pm SW 9 16 - - - - 10 Partly cloudy Showers 14.8 1025.7 5.4
21/05:30pm WSW 5 10 - - - - 10 Mostly clear Showers 14.8 1025.5 5.4
21/05:00pm NW 5 9 - - - - 10 Mostly clear - 14.8 1024.9 5.2
21/04:54pm WNW 2 5 - - - - 10 Mostly clear Showers 14.9 1025.0 5.2
21/04:30pm SW 4 7 - - - - 8 Partly cloudy - 14.9 1025.0 5.0
21/04:00pm SW 7 10 - - - - 4 Partly cloudy - 14.9 1025.1 3.4
21/03:30pm WSW 10 14 - - - - 10 Mostly clear - 14.8 1024.7 2.2
21/03:27pm WSW 10 14 - - - - 10 Mostly clear - 14.8 1024.7 2.2
21/03:10pm SSW 12 15 - - - - 6 Partly cloudy Showers 15.0 1024.9 2.2
21/03:00pm SW 11 17 - - - - 10 Cloudy Rain 15.6 1024.8 2.2
21/02:47pm SW 8 12 - - - - 10 Mostly clear - 15.6 1024.6 2.2
21/02:30pm SW 9 13 - - - - 4 Mostly clear Showers 15.1 1024.8 2.0
21/02:24pm SW 10 13 - - - - 4 Partly cloudy Showers 15.3 1024.8 1.8
21/02:17pm SSW 11 18 - - - - 3 Mostly cloudy Showers 15.1 1024.8 1.8
21/02:00pm SSW 15 19 - - - - 10 Partly cloudy - 15.1 1024.9 1.2
21/01:36pm SW 14 18 - - - - 3 Mostly cloudy Showers 15.9 1024.7 0.0
21/01:33pm SW 15 19 - - - - 10 Mostly cloudy Showers 16.1 1024.7 0.0
21/01:30pm SW 16 19 - - - - 10 Mostly cloudy Showers 16.2 1024.7 0.0
21/01:16pm SW 15 20 - - - - 10 Partly cloudy - 16.2 1024.7 0.0
21/01:00pm SW 15 20 - - - - 10 Partly cloudy - 16.1 1024.9 0.0
21/12:30pm SW 12 17 - - - - 10 Partly cloudy - 16.7 1025.1 0.0
21/12:00pm SW 12 17 - - - - 10 Cloudy - 16.9 1025.5 0.0
21/11:30am SW 14 18 - - - - 10 Partly cloudy - 16.7 1025.8 0.0
21/11:00am SW 9 15 - - - - 10 Partly cloudy - 15.8 1026.1 0.0
21/10:30am SW 8 13 - - - - 10 Mostly clear - 15.2 1026.4 0.0
21/10:00am WSW 8 11 - - - - 10 Partly cloudy - 14.8 1026.4 0.0
21/09:30am WSW 9 14 - - - - 10 Mostly clear - 14.3 1026.4 0.0
21/09:24am WSW 9 14 - - - - 10 Partly cloudy - 14.3 1026.4 0.0
21/09:01am WSW 7 11 - - - - 9 Partly cloudy - 13.5 1026.5 0.0
21/09:00am SW 7 11 - - - - 9 Cloudy Showers 13.4 1026.5 20.2
21/08:45am WSW 8 10 - - - - 6 Partly cloudy - 13.2 1026.6 20.2
21/08:42am WSW 8 10 - - - - 10 Partly cloudy Showers 13.2 1026.6 19.8
21/08:32am WSW 7 10 - - - - 6 Partly cloudy Showers 13.1 1026.4 19.8
21/08:30am WSW 7 10 - - - - 4 Partly cloudy Showers 13.1 1026.4 19.8
21/08:24am WSW 8 10 - - - - 6 Partly cloudy Showers 13.0 1026.4 19.6
21/08:23am WSW 8 10 - - - - 7 Partly cloudy Showers 13.0 1026.3 19.6
21/08:00am WSW 11 15 - - - - 4 Partly cloudy - 12.9 1026.0 19.4
21/07:40am WSW 8 13 - - - - 10 Partly cloudy Showers 12.8 1025.6 18.6
21/07:30am WSW 9 14 - - - - 6 Partly cloudy Showers 12.7 1025.7 18.6
21/07:19am WSW 10 14 - - - - 6 Mostly clear Showers 12.8 1025.4 18.4
21/07:11am WSW 9 12 - - - - 10 Cloudy Showers 12.7 1025.4 18.0
21/07:00am W 7 10 - - - - 6 Mostly cloudy - 12.6 1025.3 18.0
21/06:43am W 8 10 - - - - 6 Partly cloudy - 12.6 1025.1 17.6
21/06:39am WSW 9 11 - - - - 5 Partly cloudy - 12.6 1025.0 17.6
21/06:30am WSW 9 12 - - - - 3 Partly cloudy - 12.7 1024.9 17.4
21/06:08am WSW 10 14 - - - - 6 Partly cloudy - 12.7 1024.8 16.4
21/06:05am WSW 10 14 - - - - 9 Partly cloudy - 12.7 1024.8 16.4
21/06:01am WSW 10 14 - - - - 10 Partly cloudy - 12.7 1024.6 16.4
21/06:00am WSW 10 13 - - - - 10 Cloudy Showers 12.7 1024.6 16.4
21/05:55am WSW 10 15 - - - - 6 Partly cloudy - 12.7 1024.5 16.4
21/05:51am WSW 10 15 - - - - 8 Partly cloudy - 12.7 1024.4 16.4
21/05:48am WSW 10 15 - - - - 10 Partly cloudy - 12.7 1024.4 16.2
21/05:30am WSW 12 15 - - - - 6 Partly cloudy - 12.8 1024.1 16.2
21/05:29am WSW 12 15 - - - - 6 Partly cloudy - 12.8 1024.1 16.2
21/05:20am WSW 10 14 - - - - 10 Partly cloudy - 12.8 1024.1 16.0
21/05:06am WSW 9 14 - - - - 4 Partly cloudy - 12.9 1024.0 16.0
21/05:00am WSW 10 14 - - - - 4 Partly cloudy - 12.9 1023.9 15.6
21/04:58am WSW 10 14 - - - - 6 Partly cloudy - 12.9 1023.9 15.4
21/04:51am WSW 10 14 - - - - 10 Partly cloudy - 12.9 1023.8 15.0
21/04:30am WSW 9 12 - - - - 6 Partly cloudy - 12.9 1023.6 14.8
21/04:22am WSW 10 15 - - - - 6 Partly cloudy - 12.9 1023.6 14.4
21/04:00am W 12 18 - - - - 10 Partly cloudy - 12.8 1023.3 14.2
21/03:30am W 9 12 - - - - 8 Partly cloudy - 12.7 1023.5 14.2
21/03:00am W 9 13 - - - - 10 Cloudy Drizzle 12.7 1023.5 14.0
21/02:30am W 9 12 - - - - 4 Partly cloudy - 12.7 1023.7 13.8
21/02:27am W 9 12 - - - - 3 Partly cloudy - 12.7 1023.7 13.8
21/02:00am WSW 9 11 - - - - 2 Partly cloudy - 12.7 1023.8 12.4
21/01:37am W 11 15 - - - - 6 Partly cloudy - 12.6 1023.7 10.6
21/01:30am W 10 13 - - - - 10 Partly cloudy - 12.6 1023.7 10.0
21/01:17am W 10 13 - - - - 8 Partly cloudy - 12.5 1023.7 10.0
21/01:00am WSW 9 13 - - - - 4 Partly cloudy - 12.7 1023.9 10.0
21/12:49am W 10 14 - - - - 6 Partly cloudy - 12.7 1023.9 9.2
21/12:48am W 10 14 - - - - 7 Partly cloudy - 12.7 1023.9 9.2
21/12:30am WSW 7 9 - - - - 4 Partly cloudy - 12.8 1024.0 9.2
21/12:00am WSW 8 10 - - - - 4 Cloudy Rain 12.9 1023.8 8.4
 
Date/Time
EST
Wind Sea
Height
m
Swell Vis
km
Cloud Weather Temp
°C
Press
MSL
hPa
Rain since
9am
mm
Dir  Spd
kts
Gust
kts
Height
m
Period
s
Dir
20/11:30pm WSW 8 11 - - - - 4 Partly cloudy - 13.1 1023.9 7.8
20/11:00pm WSW 7 8 - - - - 5 Partly cloudy - 13.2 1024.2 6.6
20/10:43pm WSW 7 9 - - - - 6 Partly cloudy - 13.3 1024.3 5.6
20/10:31pm WSW 5 7 - - - - 10 Partly cloudy - 13.4 1024.2 5.0
20/10:30pm WSW 6 7 - - - - 10 Partly cloudy - 13.4 1024.2 5.0
20/10:11pm SW 10 14 - - - - 6 Partly cloudy - 13.7 1024.2 5.0
20/10:00pm SW 7 9 - - - - 9 Partly cloudy - 13.4 1024.3 4.8
20/09:46pm WSW 8 10 - - - - 6 Partly cloudy - 13.5 1024.3 4.8
20/09:30pm W 6 7 - - - - 10 Partly cloudy - 13.3 1024.2 4.4
20/09:00pm W 5 9 - - - - 10 Cloudy Showers 13.5 1024.0 4.4
20/08:30pm W 9 11 - - - - 10 Partly cloudy - 13.4 1023.4 4.4
20/08:02pm WNW 6 8 - - - - 10 Partly cloudy - 13.4 1023.4 4.4
20/08:00pm WNW 6 8 - - - - 10 Partly cloudy - 13.4 1023.4 4.4
20/07:42pm WSW 7 9 - - - - 6 Partly cloudy - 13.6 1023.6 3.6
20/07:30pm WSW 9 12 - - - - 10 Partly cloudy - 13.7 1023.6 2.8
20/07:00pm WSW 7 9 - - - - 10 Mostly clear - 13.7 1023.4 2.8
20/06:30pm W 9 12 - - - - 10 Mostly clear - 13.8 1022.9 2.4
20/06:00pm W 8 10 - - - - 10 Cloudy Showers 14.0 1022.9 2.2
20/05:30pm W 7 9 - - - - 10 Mostly clear - 13.8 1022.5 2.2
20/05:23pm W 7 8 - - - - 10 Mostly clear Showers 14.0 1022.5 2.2
20/05:00pm S 4 7 - - - - 6 Mostly clear - 13.9 1022.4 2.0
20/04:30pm WSW 8 11 - - - - 5 Mostly clear Showers 14.0 1022.2 1.0
20/04:00pm SSW 15 20 - - - - 8 Partly cloudy - 14.6 1022.2 0.0
20/03:30pm SSW 9 15 - - - - 10 Mostly cloudy - 16.2 1021.7 0.0
20/03:00pm SSW 9 12 - - - - 10 Cloudy - 16.7 1021.4 0.0
20/02:30pm SSW 7 10 - - - - 10 Mostly cloudy - 17.2 1021.1 0.0
20/02:00pm SW 9 14 - - - - 10 Mostly cloudy - 17.0 1021.0 0.0
20/01:30pm SW 9 14 - - - - 10 Mostly cloudy - 17.1 1020.9 0.0
20/01:00pm SW 9 13 - - - - 10 Partly cloudy - 17.2 1021.1 0.0
20/12:30pm SW 11 16 - - - - 10 Mostly cloudy - 17.0 1021.3 0.0
20/12:00pm SW 13 17 - - - - 10 Cloudy - 17.3 1021.5 0.0
20/11:30am WSW 8 11 - - - - 10 Partly cloudy - 17.4 1021.8 0.0
20/11:00am W 12 16 - - - - 10 Partly cloudy - 16.0 1022.2 0.0
20/10:30am WNW 12 16 - - - - 10 Partly cloudy - 15.0 1022.5 0.0
20/10:00am WNW 14 16 - - - - 10 - - 14.2 1022.5 0.0
20/09:30am W 12 17 - - - - 10 - - 13.3 1022.3 0.0
20/09:00am WNW 13 17 - - - - 10 Mostly clear - 12.2 1022.2 0.0
20/08:30am WNW 14 16 - - - - 10 - - 11.0 1022.2 0.0
20/08:00am WNW 14 18 - - - - 10 Mostly clear - 10.1 1022.1 0.0
20/07:30am WNW 13 17 - - - - 10 Mostly clear - 9.2 1022.0 0.0
20/07:00am WNW 13 16 - - - - 10 Mostly clear - 8.5 1021.6 0.0
20/06:30am WNW 13 17 - - - - 10 - - 8.3 1021.3 0.0
20/06:00am WNW 13 15 - - - - 10 - - 8.4 1020.9 0.0
20/05:30am WNW 15 18 - - - - 10 - - 8.7 1020.6 0.0
20/05:00am WNW 15 19 - - - - 10 - - 8.8 1020.4 0.0
20/04:30am WNW 15 20 - - - - 10 - - 8.8 1020.1 0.0
20/04:00am WNW 16 20 - - - - 10 - - 8.9 1020.0 0.0
20/03:30am WNW 13 18 - - - - 10 - - 8.9 1020.0 0.0
20/03:00am WNW 12 15 - - - - 10 - - 8.8 1020.1 0.0
20/02:30am WNW 12 15 - - - - 10 - - 8.9 1020.1 0.0
20/02:00am WNW 10 14 - - - - 10 - - 8.7 1020.2 0.0
20/01:30am NW 8 10 - - - - 10 - - 8.3 1020.0 0.0
20/01:00am NW 8 10 - - - - 10 - - 8.2 1020.1 0.0
20/12:30am NW 8 9 - - - - 10 - - 8.2 1020.1 0.0
20/12:00am WNW 8 10 - - - - 10 - - 8.4 1020.4 0.0
 
Date/Time
EST
Wind Sea
Height
m
Swell Vis
km
Cloud Weather Temp
°C
Press
MSL
hPa
Rain since
9am
mm
Dir  Spd
kts
Gust
kts
Height
m
Period
s
Dir
19/11:30pm WNW 7 8 - - - - 10 - - 8.1 1020.3 0.0
19/11:00pm NW 6 7 - - - - 10 - - 7.9 1020.2 0.0
19/10:30pm NW 6 7 - - - - 10 - - 8.0 1020.3 0.0
19/10:00pm NW 6 7 - - - - 10 - - 9.0 1020.3 0.0
19/09:30pm WNW 4 4 - - - - 10 - - 8.7 1020.4 0.0
19/09:00pm NW 6 7 - - - - 10 - - 8.9 1020.4 0.0
19/08:30pm W 4 5 - - - - 10 - - 8.9 1020.3 0.0
19/08:00pm WNW 6 7 - - - - 10 - - 8.9 1020.4 0.0
19/07:30pm NW 6 8 - - - - 10 - - 9.2 1020.2 0.0
19/07:00pm CALM 0 0 - - - - 10 - - 9.1 1020.1 0.0
19/06:30pm CALM 0 0 - - - - 10 - - 10.6 1019.7 0.0
19/06:00pm CALM 0 0 - - - - 10 - - 11.1 1019.6 0.0
19/05:30pm CALM 0 0 - - - - 10 - - 12.7 1019.4 0.0
19/05:00pm SW 5 5 - - - - 10 - - 15.3 1019.3 0.0
19/04:30pm SW 6 7 - - - - 10 - - 16.6 1019.1 0.0
19/04:00pm SSW 8 11 - - - - 10 - - 17.5 1019.0 0.0
19/03:30pm SW 9 12 - - - - 10 Partly cloudy - 18.1 1019.0 0.0
19/03:00pm WSW 8 13 - - - - 10 Mostly clear - 18.2 1019.0 0.0
19/02:30pm SSW 10 13 - - - - 10 Partly cloudy - 18.2 1019.1 0.0
19/02:00pm SW 8 15 - - - - 10 Partly cloudy - 18.2 1019.2 0.0
19/01:30pm SW 11 15 - - - - 10 - - 17.7 1019.5 0.0
19/01:00pm SW 11 15 - - - - 10 Partly cloudy - 17.2 1019.9 0.0
19/12:30pm WSW 9 13 - - - - 10 Partly cloudy - 17.0 1020.3 0.0
19/12:00pm W 9 13 - - - - 10 Cloudy - 16.0 1020.6 0.0
19/11:30am W 9 13 - - - - 10 Partly cloudy - 14.7 1021.3 0.0
19/11:15am W 9 13 - - - - 10 Partly cloudy - 13.5 1021.5 0.0
19/11:00am WSW 12 17 - - - - 4 Partly cloudy - 12.6 1021.7 0.0
19/10:52am WSW 14 19 - - - - 6 Partly cloudy - 13.3 1021.7 0.0
19/10:30am WSW 13 17 - - - - 10 Partly cloudy - 14.5 1021.9 0.0
19/10:00am W 9 12 - - - - 10 Partly cloudy - 13.4 1022.0 0.0
19/09:30am WNW 9 12 - - - - 10 Partly cloudy - 12.6 1022.1 0.0
19/09:00am WNW 9 12 - - - - 10 Cloudy - 12.1 1021.9 32.0
19/08:30am W 9 12 - - - - 10 Partly cloudy - 11.8 1021.9 32.0
19/08:00am W 7 9 - - - - 10 Partly cloudy - 11.4 1021.8 32.0
19/07:30am W 8 11 - - - - 10 Partly cloudy - 11.3 1021.8 32.0
19/07:00am W 10 13 - - - - 10 Partly cloudy - 10.5 1021.5 32.0
19/06:30am W 9 13 - - - - 10 Partly cloudy - 10.8 1021.4 32.0
19/06:00am W 9 14 - - - - 10 Cloudy - 10.9 1021.0 32.0
19/05:30am WSW 11 15 - - - - 10 Partly cloudy - 10.6 1020.8 32.0
19/05:00am W 10 13 - - - - 10 Partly cloudy - 10.4 1020.6 32.0
19/04:30am W 8 10 - - - - 10 Partly cloudy - 9.8 1020.5 32.0
19/04:00am W 8 10 - - - - 10 Partly cloudy - 9.6 1020.4 32.0
19/03:30am WSW 9 13 - - - - 10 Partly cloudy - 9.6 1020.2 32.0
19/03:00am WSW 8 11 - - - - 10 - - 9.8 1020.3 32.0
19/02:30am WSW 8 10 - - - - 10 Partly cloudy - 10.1 1020.5 32.0
19/02:00am WSW 9 14 - - - - 10 Partly cloudy - 10.3 1020.6 32.0
19/01:30am WSW 9 12 - - - - 10 Partly cloudy - 10.0 1020.8 32.0
19/01:00am W 9 10 - - - - 10 Partly cloudy - 10.3 1021.0 32.0
19/12:30am W 8 13 - - - - 10 Partly cloudy - 10.4 1021.0 32.0
19/12:00am WSW 9 12 - - - - 10 Mostly clear Rain 10.5 1021.6 32.0
 
Date/Time
EST
Wind Sea
Height
m
Swell Vis
km
Cloud Weather Temp
°C
Press
MSL
hPa
Rain since
9am
mm
Dir  Spd
kts
Gust
kts
Height
m
Period
s
Dir
18/11:30pm WSW 5 8 - - - - 10 Partly cloudy - 10.4 1021.9 32.0
18/11:16pm SW 5 8 - - - - 8 Partly cloudy - 10.6 1021.7 31.8
18/11:00pm SW 8 10 - - - - 4 Partly cloudy - 10.7 1021.9 31.0
18/10:36pm WSW 12 17 - - - - 6 Partly cloudy - 10.8 1022.1 28.8

Other formats

Comma delimited format used in spreadsheet applications
http://www.bom.gov.au/fwo/IDN60701/IDN60701.94776.axf

JavaScript Object Notation format (JSON) in row-major order
http://www.bom.gov.au/fwo/IDN60701/IDN60701.94776.json

Data quality

Most of these data are generated automatically and are frequently updated. Quality checks on data are not normally performed. It is possible for incorrect values to appear. Refer to information at About Latest Weather Observations and please check the disclaimer before using these data.